Waverly, AL (36879)

8:25 AM CDT on March 31, 2015 (GMT -0500)
APRSWXNET | | Change Station
CLOSE
Current Station
Personal Weather Station
Location: Opelika, AL
Elevation: 777 ft
Nearby Weather Stations

Elev 777 ft 32.68 °N, 85.40 °W | Updated 35 minutes ago

Partly Cloudy
Partly Cloudy
50 °F
Feels Like 50 °F
N
0
Wind Variable Wind from WNW
Gusts 0.0 mph

Today
High -- | Low -- °F
--% Chance of Precip.
Yesterday
High -- | Low -- °F
Precip. -- in
6:31 AM 7:01 PM
Waxing Gibbous, 87% visible
Pressure 30.13 in
Visibility 10.0 miles
Clouds Scattered Clouds 4100 ft
Mostly Cloudy 4800 ft
Mostly Cloudy 7000 ft
Dew Point 50 °F
Humidity 99%
Rainfall in
Snow Depth Not available.
UV 1 out of 12
Pollen 10.00 out of 12
Air Quality Not available.
Flu Activity Not available.
METAR KAUO 311315Z AUTO 17003KT 10SM SCT041 BKN048 BKN070 14/11 A3013 RMK AO1

More Conditions Fewer Conditions

Pressure 30.13 in
Visibility 10.0 miles
Clouds Scattered Clouds 4100 ft
Mostly Cloudy 4800 ft
Mostly Cloudy 7000 ft
Dew Point 50 °F
Humidity 99%
Rainfall in
Snow Depth Not available.
UV 1 out of 12
Pollen 10.00 out of 12
Air Quality Not available.
Flu Activity Not available.
METAR KAUO 311315Z AUTO 17003KT 10SM SCT041 BKN048 BKN070 14/11 A3013 RMK AO1

More Conditions Fewer Conditions

10-Day Weather Forecast

Almanac

Astronomy

Mar. 31, 2015 Rise Set
Actual Time
Civil Twilight
Nautical Twilight
Astronomical Twilight
Moon
Length of Visible Light
Length of Day
Tomorrow will be .
, % of the Moon is Illuminated

Today's Extremes

State Highs State Lows

Community

WunderPhotos

Upload Photos

1,809,766 photos uploaded!

WunderBlogs® & News

Nearby

Air Quality

  Air Quality AQ Index Pollutant
Not available.

Snow Depth

Station Depth Elevation

Earthquake Activity

City Distance Mag. Time & Date
Minimum magnitude displayed is 2.5.

Coastal Water Temperatures

Place Temperature

Stations

Nearby Weather Stations

Station Location Temp. Windchill Dew Point Humidity Wind Precip. Elev Updated Type